sensor_id;sensor_type;location;lat;lon;timestamp;pressure;altitude;pressure_sealevel;temperature;humidity
15195;BME280;7698;42.478;23.756;2023-02-12T00:01:14;94166.88;;;-1.71;64.05
15195;BME280;7698;42.478;23.756;2023-02-12T00:03:41;94167.03;;;-1.72;63.95
15195;BME280;7698;42.478;23.756;2023-02-12T00:06:09;94162.91;;;-1.75;63.68
15195;BME280;7698;42.478;23.756;2023-02-12T00:08:37;94173.50;;;-1.76;63.65
15195;BME280;7698;42.478;23.756;2023-02-12T00:11:09;94164.81;;;-1.77;63.56
15195;BME280;7698;42.478;23.756;2023-02-12T00:13:36;94167.44;;;-1.77;63.23
15195;BME280;7698;42.478;23.756;2023-02-12T00:16:05;94164.00;;;-1.77;63.03
15195;BME280;7698;42.478;23.756;2023-02-12T00:18:32;94168.41;;;-1.78;62.98
15195;BME280;7698;42.478;23.756;2023-02-12T00:20:59;94169.25;;;-1.77;63.07
15195;BME280;7698;42.478;23.756;2023-02-12T00:23:28;94168.94;;;-1.74;63.06
15195;BME280;7698;42.478;23.756;2023-02-12T00:25:55;94176.94;;;-1.76;62.61
15195;BME280;7698;42.478;23.756;2023-02-12T00:28:21;94167.59;;;-1.78;62.52
15195;BME280;7698;42.478;23.756;2023-02-12T00:30:48;94163.47;;;-1.81;63.10
15195;BME280;7698;42.478;23.756;2023-02-12T00:33:15;94166.22;;;-1.82;62.47
15195;BME280;7698;42.478;23.756;2023-02-12T00:35:42;94168.84;;;-1.82;62.74
15195;BME280;7698;42.478;23.756;2023-02-12T00:38:09;94163.59;;;-1.82;62.80
15195;BME280;7698;42.478;23.756;2023-02-12T00:40:37;94168.97;;;-1.84;63.09
15195;BME280;7698;42.478;23.756;2023-02-12T00:43:04;94165.69;;;-1.86;63.04
15195;BME280;7698;42.478;23.756;2023-02-12T00:45:31;94164.72;;;-1.85;62.95
15195;BME280;7698;42.478;23.756;2023-02-12T00:47:58;94166.91;;;-1.80;63.45
15195;BME280;7698;42.478;23.756;2023-02-12T00:50:24;94165.94;;;-1.79;62.95
15195;BME280;7698;42.478;23.756;2023-02-12T00:52:51;94153.69;;;-1.79;63.39
15195;BME280;7698;42.478;23.756;2023-02-12T00:55:18;94158.63;;;-1.76;63.29
15195;BME280;7698;42.478;23.756;2023-02-12T00:57:46;94152.81;;;-1.69;63.24
15195;BME280;7698;42.478;23.756;2023-02-12T01:00:14;94144.53;;;-1.65;62.84
15195;BME280;7698;42.478;23.756;2023-02-12T01:02:41;94147.66;;;-1.61;62.67
15195;BME280;7698;42.478;23.756;2023-02-12T01:05:08;94143.25;;;-1.61;62.85
15195;BME280;7698;42.478;23.756;2023-02-12T01:07:35;94152.59;;;-1.58;62.73
15195;BME280;7698;42.478;23.756;2023-02-12T01:10:04;94144.75;;;-1.58;62.51
15195;BME280;7698;42.478;23.756;2023-02-12T01:12:31;94127.69;;;-1.62;62.45
15195;BME280;7698;42.478;23.756;2023-02-12T01:14:59;94121.78;;;-1.64;62.63
15195;BME280;7698;42.478;23.756;2023-02-12T01:17:26;94126.22;;;-1.65;62.55
15195;BME280;7698;42.478;23.756;2023-02-12T01:19:56;94109.00;;;-1.67;62.81
15195;BME280;7698;42.478;23.756;2023-02-12T01:22:24;94119.63;;;-1.69;62.95
15195;BME280;7698;42.478;23.756;2023-02-12T01:24:51;94117.13;;;-1.71;62.91
15195;BME280;7698;42.478;23.756;2023-02-12T01:27:18;94119.91;;;-1.72;62.99
15195;BME280;7698;42.478;23.756;2023-02-12T01:29:44;94115.78;;;-1.75;63.19
15195;BME280;7698;42.478;23.756;2023-02-12T01:32:12;94125.72;;;-1.78;63.32
15195;BME280;7698;42.478;23.756;2023-02-12T01:34:39;94120.75;;;-1.81;63.48
15195;BME280;7698;42.478;23.756;2023-02-12T01:37:06;94112.50;;;-1.86;63.87
15195;BME280;7698;42.478;23.756;2023-02-12T01:39:33;94106.09;;;-1.92;64.22
15195;BME280;7698;42.478;23.756;2023-02-12T01:42:00;94107.63;;;-1.99;64.99
15195;BME280;7698;42.478;23.756;2023-02-12T01:44:29;94102.97;;;-2.05;65.34
15195;BME280;7698;42.478;23.756;2023-02-12T01:46:58;94107.13;;;-2.12;66.07
15195;BME280;7698;42.478;23.756;2023-02-12T01:49:28;94099.84;;;-2.18;67.11
15195;BME280;7698;42.478;23.756;2023-02-12T01:51:59;94106.34;;;-2.22;67.58
15195;BME280;7698;42.478;23.756;2023-02-12T01:54:28;94111.84;;;-2.25;68.27
15195;BME280;7698;42.478;23.756;2023-02-12T01:56:56;94106.09;;;-2.29;68.94
15195;BME280;7698;42.478;23.756;2023-02-12T01:59:23;94103.63;;;-2.30;69.79
15195;BME280;7698;42.478;23.756;2023-02-12T02:01:50;94107.34;;;-2.33;70.58
15195;BME280;7698;42.478;23.756;2023-02-12T02:04:20;94110.09;;;-2.34;71.08
15195;BME280;7698;42.478;23.756;2023-02-12T02:06:53;94103.22;;;-2.35;72.28
15195;BME280;7698;42.478;23.756;2023-02-12T02:09:21;94118.75;;;-2.34;72.54
15195;BME280;7698;42.478;23.756;2023-02-12T02:11:49;94109.94;;;-2.33;73.01
15195;BME280;7698;42.478;23.756;2023-02-12T02:14:33;94107.19;;;-2.31;73.21
15195;BME280;7698;42.478;23.756;2023-02-12T02:17:19;94107.19;;;-2.31;73.11
15195;BME280;7698;42.478;23.756;2023-02-12T02:22:48;94095.91;;;-2.32;72.24
15195;BME280;7698;42.478;23.756;2023-02-12T02:28:44;94093.44;;;-2.33;73.15
15195;BME280;7698;42.478;23.756;2023-02-12T02:31:22;94092.47;;;-2.32;72.87
15195;BME280;7698;42.478;23.756;2023-02-12T02:33:56;94101.00;;;-2.30;73.17
15195;BME280;7698;42.478;23.756;2023-02-12T02:36:27;94096.44;;;-2.28;73.22
15195;BME280;7698;42.478;23.756;2023-02-12T02:39:02;94099.75;;;-2.26;72.20
15195;BME280;7698;42.478;23.756;2023-02-12T02:41:34;94087.34;;;-2.24;72.56
15195;BME280;7698;42.478;23.756;2023-02-12T02:44:08;94082.81;;;-2.22;72.76
15195;BME280;7698;42.478;23.756;2023-02-12T02:46:41;94081.53;;;-2.18;72.93
15195;BME280;7698;42.478;23.756;2023-02-12T02:49:14;94095.97;;;-2.14;72.15
15195;BME280;7698;42.478;23.756;2023-02-12T02:51:44;94095.00;;;-2.13;72.10
15195;BME280;7698;42.478;23.756;2023-02-12T02:54:16;94090.31;;;-2.10;71.19
15195;BME280;7698;42.478;23.756;2023-02-12T02:56:46;94093.75;;;-2.09;71.17
15195;BME280;7698;42.478;23.756;2023-02-12T02:59:18;94099.94;;;-2.10;71.35
15195;BME280;7698;42.478;23.756;2023-02-12T03:01:53;94096.78;;;-2.14;70.88
15195;BME280;7698;42.478;23.756;2023-02-12T03:04:22;94102.03;;;-2.14;71.38
15195;BME280;7698;42.478;23.756;2023-02-12T03:06:55;94100.09;;;-2.12;71.71
15195;BME280;7698;42.478;23.756;2023-02-12T03:09:29;94107.81;;;-2.10;71.20
15195;BME280;7698;42.478;23.756;2023-02-12T03:12:01;94104.34;;;-2.11;71.35
15195;BME280;7698;42.478;23.756;2023-02-12T03:14:32;94101.88;;;-2.12;70.84
15195;BME280;7698;42.478;23.756;2023-02-12T03:17:05;94108.91;;;-2.13;71.11
15195;BME280;7698;42.478;23.756;2023-02-12T03:19:36;94108.09;;;-2.13;70.74
15195;BME280;7698;42.478;23.756;2023-02-12T03:22:07;94091.69;;;-2.15;71.50
15195;BME280;7698;42.478;23.756;2023-02-12T03:24:38;94096.94;;;-2.15;71.72
15195;BME280;7698;42.478;23.756;2023-02-12T03:27:08;94095.00;;;-2.13;71.79
15195;BME280;7698;42.478;23.756;2023-02-12T03:29:36;94095.53;;;-2.10;72.27
15195;BME280;7698;42.478;23.756;2023-02-12T03:32:14;94093.63;;;-2.08;72.41
15195;BME280;7698;42.478;23.756;2023-02-12T03:34:49;94094.16;;;-2.04;72.66
15195;BME280;7698;42.478;23.756;2023-02-12T03:37:25;94083.41;;;-2.01;72.40
15195;BME280;7698;42.478;23.756;2023-02-12T03:39:56;94089.03;;;-1.96;72.78
15195;BME280;7698;42.478;23.756;2023-02-12T03:42:32;94092.19;;;-1.92;72.90
15195;BME280;7698;42.478;23.756;2023-02-12T03:45:03;94088.28;;;-1.88;72.46
15195;BME280;7698;42.478;23.756;2023-02-12T03:47:41;94085.22;;;-1.84;73.18
15195;BME280;7698;42.478;23.756;2023-02-12T03:50:14;94096.09;;;-1.79;72.72
15195;BME280;7698;42.478;23.756;2023-02-12T03:52:42;94090.97;;;-1.71;72.63
15195;BME280;7698;42.478;23.756;2023-02-12T03:55:10;94091.03;;;-1.62;73.09
15195;BME280;7698;42.478;23.756;2023-02-12T03:57:40;94100.19;;;-1.49;72.73
15195;BME280;7698;42.478;23.756;2023-02-12T04:00:10;94088.84;;;-1.40;72.91
15195;BME280;7698;42.478;23.756;2023-02-12T04:02:39;94090.25;;;-1.27;71.76
15195;BME280;7698;42.478;23.756;2023-02-12T04:05:08;94087.28;;;-1.15;71.65
15195;BME280;7698;42.478;23.756;2023-02-12T04:07:36;94091.44;;;-1.04;70.56
15195;BME280;7698;42.478;23.756;2023-02-12T04:10:03;94091.38;;;-0.94;70.59
15195;BME280;7698;42.478;23.756;2023-02-12T04:12:35;94085.41;;;-0.87;69.93
15195;BME280;7698;42.478;23.756;2023-02-12T04:15:20;94092.47;;;-0.79;69.27
15195;BME280;7698;42.478;23.756;2023-02-12T04:18:00;94085.66;;;-0.72;69.26
15195;BME280;7698;42.478;23.756;2023-02-12T04:20:40;94079.00;;;-0.66;68.46
15195;BME280;7698;42.478;23.756;2023-02-12T04:23:14;94079.88;;;-0.58;68.85
15195;BME280;7698;42.478;23.756;2023-02-12T04:25:51;94079.25;;;-0.52;68.09
15195;BME280;7698;42.478;23.756;2023-02-12T04:28:26;94082.75;;;-0.43;67.64
15195;BME280;7698;42.478;23.756;2023-02-12T04:30:57;94082.97;;;-0.37;67.61
15195;BME280;7698;42.478;23.756;2023-02-12T04:33:30;94086.78;;;-0.31;67.67
15195;BME280;7698;42.478;23.756;2023-02-12T04:36:00;94094.69;;;-0.23;66.37
15195;BME280;7698;42.478;23.756;2023-02-12T04:38:33;94096.03;;;-0.19;66.24
15195;BME280;7698;42.478;23.756;2023-02-12T04:41:04;94094.88;;;-0.16;66.29
15195;BME280;7698;42.478;23.756;2023-02-12T04:43:33;94102.31;;;-0.12;65.21
15195;BME280;7698;42.478;23.756;2023-02-12T04:46:00;94106.41;;;-0.09;65.56
15195;BME280;7698;42.478;23.756;2023-02-12T04:48:28;94112.34;;;-0.07;64.90
15195;BME280;7698;42.478;23.756;2023-02-12T04:50:55;94111.22;;;-0.05;65.19
15195;BME280;7698;42.478;23.756;2023-02-12T04:53:22;94113.84;;;-0.05;64.75
15195;BME280;7698;42.478;23.756;2023-02-12T04:55:49;94121.72;;;-0.05;64.36
15195;BME280;7698;42.478;23.756;2023-02-12T04:58:16;94120.72;;;-0.04;64.63
15195;BME280;7698;42.478;23.756;2023-02-12T05:00:43;94120.72;;;-0.04;64.48
15195;BME280;7698;42.478;23.756;2023-02-12T05:03:10;94121.56;;;-0.03;64.75
15195;BME280;7698;42.478;23.756;2023-02-12T05:05:38;94119.59;;;-0.01;64.61
15195;BME280;7698;42.478;23.756;2023-02-12T05:08:05;94124.84;;;-0.01;65.21
15195;BME280;7698;42.478;23.756;2023-02-12T05:10:32;94125.50;;;0.01;64.96
15195;BME280;7698;42.478;23.756;2023-02-12T05:12:58;94131.41;;;0.03;64.47
15195;BME280;7698;42.478;23.756;2023-02-12T05:15:25;94122.56;;;0.04;64.08
15195;BME280;7698;42.478;23.756;2023-02-12T05:17:52;94131.78;;;0.08;64.00
15195;BME280;7698;42.478;23.756;2023-02-12T05:20:19;94121.13;;;0.10;64.09
15195;BME280;7698;42.478;23.756;2023-02-12T05:22:51;94124.03;;;0.07;64.26
15195;BME280;7698;42.478;23.756;2023-02-12T05:25:18;94124.50;;;0.02;64.24
15195;BME280;7698;42.478;23.756;2023-02-12T05:27:45;94127.63;;;-0.03;64.40
15195;BME280;7698;42.478;23.756;2023-02-12T05:30:12;94131.38;;;-0.05;65.08
15195;BME280;7698;42.478;23.756;2023-02-12T05:32:39;94134.47;;;-0.10;65.27
15195;BME280;7698;42.478;23.756;2023-02-12T05:35:06;94136.56;;;-0.13;65.55
15195;BME280;7698;42.478;23.756;2023-02-12T05:37:34;94138.81;;;-0.18;66.29
15195;BME280;7698;42.478;23.756;2023-02-12T05:40:03;94148.66;;;-0.20;66.65
15195;BME280;7698;42.478;23.756;2023-02-12T05:42:30;94149.78;;;-0.23;66.52
15195;BME280;7698;42.478;23.756;2023-02-12T05:44:56;94152.41;;;-0.23;67.11
15195;BME280;7698;42.478;23.756;2023-02-12T05:47:23;94152.25;;;-0.21;67.43
15195;BME280;7698;42.478;23.756;2023-02-12T05:49:50;94159.31;;;-0.22;68.21
15195;BME280;7698;42.478;23.756;2023-02-12T05:52:17;94170.31;;;-0.18;67.48
15195;BME280;7698;42.478;23.756;2023-02-12T05:54:44;94169.34;;;-0.17;68.27
15195;BME280;7698;42.478;23.756;2023-02-12T05:57:12;94176.25;;;-0.16;67.38
15195;BME280;7698;42.478;23.756;2023-02-12T05:59:39;94176.91;;;-0.14;68.29
15195;BME280;7698;42.478;23.756;2023-02-12T06:02:05;94181.84;;;-0.11;67.80
15195;BME280;7698;42.478;23.756;2023-02-12T06:04:32;94180.72;;;-0.09;68.06
15195;BME280;7698;42.478;23.756;2023-02-12T06:06:59;94188.44;;;-0.07;69.26
15195;BME280;7698;42.478;23.756;2023-02-12T06:09:26;94188.16;;;-0.04;69.08
15195;BME280;7698;42.478;23.756;2023-02-12T06:11:53;94185.88;;;0.01;69.04
15195;BME280;7698;42.478;23.756;2023-02-12T06:14:21;94186.28;;;0.14;68.63
15195;BME280;7698;42.478;23.756;2023-02-12T06:16:49;94188.50;;;0.27;68.29
15195;BME280;7698;42.478;23.756;2023-02-12T06:19:17;94191.53;;;0.40;68.73
15195;BME280;7698;42.478;23.756;2023-02-12T06:21:44;94188.94;;;0.48;69.88
15195;BME280;7698;42.478;23.756;2023-02-12T06:24:13;94180.91;;;0.58;72.08
15195;BME280;7698;42.478;23.756;2023-02-12T06:26:40;94178.28;;;0.58;77.33
15195;BME280;7698;42.478;23.756;2023-02-12T06:29:07;94187.00;;;0.58;79.80
15195;BME280;7698;42.478;23.756;2023-02-12T06:31:36;94178.44;;;0.56;82.97
15195;BME280;7698;42.478;23.756;2023-02-12T06:34:05;94176.31;;;0.52;86.05
15195;BME280;7698;42.478;23.756;2023-02-12T06:36:33;94180.91;;;0.50;88.16
15195;BME280;7698;42.478;23.756;2023-02-12T06:39:02;94196.66;;;0.50;89.82
15195;BME280;7698;42.478;23.756;2023-02-12T06:41:29;94196.16;;;0.46;91.45
15195;BME280;7698;42.478;23.756;2023-02-12T06:43:56;94204.88;;;0.47;92.12
15195;BME280;7698;42.478;23.756;2023-02-12T06:46:23;94196.97;;;0.47;92.80
15195;BME280;7698;42.478;23.756;2023-02-12T06:48:53;94201.09;;;0.49;93.08
15195;BME280;7698;42.478;23.756;2023-02-12T06:51:21;94192.25;;;0.50;93.60
15195;BME280;7698;42.478;23.756;2023-02-12T06:53:48;94201.09;;;0.49;93.78
15195;BME280;7698;42.478;23.756;2023-02-12T06:56:16;94211.75;;;0.48;94.37
15195;BME280;7698;42.478;23.756;2023-02-12T06:58:45;94213.41;;;0.49;94.68
15195;BME280;7698;42.478;23.756;2023-02-12T07:01:13;94209.81;;;0.50;94.92
15195;BME280;7698;42.478;23.756;2023-02-12T07:03:43;94214.91;;;0.51;95.26
15195;BME280;7698;42.478;23.756;2023-02-12T07:06:11;94219.34;;;0.59;95.07
15195;BME280;7698;42.478;23.756;2023-02-12T07:08:38;94226.78;;;0.63;94.99
15195;BME280;7698;42.478;23.756;2023-02-12T07:11:05;94218.75;;;0.65;94.56
15195;BME280;7698;42.478;23.756;2023-02-12T07:13:33;94211.53;;;0.67;94.46
15195;BME280;7698;42.478;23.756;2023-02-12T07:16:02;94211.88;;;0.72;93.95
15195;BME280;7698;42.478;23.756;2023-02-12T07:18:30;94217.66;;;0.76;93.29
15195;BME280;7698;42.478;23.756;2023-02-12T07:20:57;94206.31;;;0.75;92.13
15195;BME280;7698;42.478;23.756;2023-02-12T07:23:25;94214.03;;;0.77;91.47
15195;BME280;7698;42.478;23.756;2023-02-12T07:25:55;94213.72;;;0.80;90.87
15195;BME280;7698;42.478;23.756;2023-02-12T07:28:23;94210.94;;;0.81;90.47
15195;BME280;7698;42.478;23.756;2023-02-12T07:30:49;94202.88;;;0.83;89.93
15195;BME280;7698;42.478;23.756;2023-02-12T07:33:16;94201.06;;;0.83;89.34
15195;BME280;7698;42.478;23.756;2023-02-12T07:35:43;94209.78;;;0.84;89.10
15195;BME280;7698;42.478;23.756;2023-02-12T07:38:10;94206.97;;;0.85;89.53
15195;BME280;7698;42.478;23.756;2023-02-12T07:40:39;94217.50;;;0.85;89.05
15195;BME280;7698;42.478;23.756;2023-02-12T07:43:06;94213.06;;;0.86;89.29
15195;BME280;7698;42.478;23.756;2023-02-12T07:45:32;94209.16;;;0.90;89.83
15195;BME280;7698;42.478;23.756;2023-02-12T07:47:59;94206.03;;;0.94;89.51
15195;BME280;7698;42.478;23.756;2023-02-12T07:50:26;94213.63;;;0.97;89.38
15195;BME280;7698;42.478;23.756;2023-02-12T07:52:53;94224.47;;;1.02;89.33
15195;BME280;7698;42.478;23.756;2023-02-12T07:55:20;94230.56;;;1.03;89.50
15195;BME280;7698;42.478;23.756;2023-02-12T07:57:48;94225.97;;;1.05;89.46
15195;BME280;7698;42.478;23.756;2023-02-12T08:00:15;94225.47;;;1.10;89.71
15195;BME280;7698;42.478;23.756;2023-02-12T08:02:42;94223.50;;;1.12;89.31
15195;BME280;7698;42.478;23.756;2023-02-12T08:05:09;94224.84;;;1.16;89.27
15195;BME280;7698;42.478;23.756;2023-02-12T08:07:36;94226.50;;;1.17;89.25
15195;BME280;7698;42.478;23.756;2023-02-12T08:10:04;94233.91;;;1.21;89.22
15195;BME280;7698;42.478;23.756;2023-02-12T08:12:31;94238.22;;;1.30;89.52
15195;BME280;7698;42.478;23.756;2023-02-12T08:14:59;94245.94;;;1.40;89.57
15195;BME280;7698;42.478;23.756;2023-02-12T08:17:26;94243.84;;;1.52;88.69
15195;BME280;7698;42.478;23.756;2023-02-12T08:19:52;94238.28;;;1.63;88.38
15195;BME280;7698;42.478;23.756;2023-02-12T08:22:19;94238.78;;;1.75;87.97
15195;BME280;7698;42.478;23.756;2023-02-12T08:24:46;94239.78;;;1.90;87.94
15195;BME280;7698;42.478;23.756;2023-02-12T08:27:13;94235.50;;;2.05;86.30
15195;BME280;7698;42.478;23.756;2023-02-12T08:29:40;94243.75;;;2.18;86.24
15195;BME280;7698;42.478;23.756;2023-02-12T08:32:08;94241.72;;;2.36;85.14
15195;BME280;7698;42.478;23.756;2023-02-12T08:34:38;94255.38;;;2.48;84.07
15195;BME280;7698;42.478;23.756;2023-02-12T08:37:05;94258.50;;;2.60;84.07
15195;BME280;7698;42.478;23.756;2023-02-12T08:39:32;94256.47;;;2.78;83.63
15195;BME280;7698;42.478;23.756;2023-02-12T08:41:59;94258.91;;;2.96;81.91
15195;BME280;7698;42.478;23.756;2023-02-12T08:44:27;94256.03;;;3.14;81.67
15195;BME280;7698;42.478;23.756;2023-02-12T08:46:54;94260.53;;;3.36;81.27
15195;BME280;7698;42.478;23.756;2023-02-12T08:49:24;94254.84;;;3.55;79.00
15195;BME280;7698;42.478;23.756;2023-02-12T08:51:53;94263.06;;;3.60;77.56
15195;BME280;7698;42.478;23.756;2023-02-12T08:54:22;94264.34;;;3.64;75.89
15195;BME280;7698;42.478;23.756;2023-02-12T08:56:49;94268.81;;;3.64;74.44
15195;BME280;7698;42.478;23.756;2023-02-12T08:59:17;94268.47;;;3.67;74.93
15195;BME280;7698;42.478;23.756;2023-02-12T09:01:44;94279.50;;;3.70;74.22
15195;BME280;7698;42.478;23.756;2023-02-12T09:04:14;94279.16;;;3.73;74.10
15195;BME280;7698;42.478;23.756;2023-02-12T09:06:44;94285.63;;;3.71;72.93
15195;BME280;7698;42.478;23.756;2023-02-12T09:09:12;94277.72;;;3.63;72.93
15195;BME280;7698;42.478;23.756;2023-02-12T09:11:39;94283.25;;;3.53;73.16
15195;BME280;7698;42.478;23.756;2023-02-12T09:14:09;94287.69;;;3.53;73.85
15195;BME280;7698;42.478;23.756;2023-02-12T09:16:37;94286.88;;;3.52;74.03
15195;BME280;7698;42.478;23.756;2023-02-12T09:19:05;94285.25;;;3.51;74.09
15195;BME280;7698;42.478;23.756;2023-02-12T09:21:32;94285.06;;;3.53;74.28
15195;BME280;7698;42.478;23.756;2023-02-12T09:24:01;94286.72;;;3.54;74.22
15195;BME280;7698;42.478;23.756;2023-02-12T09:26:28;94276.91;;;3.62;75.00
15195;BME280;7698;42.478;23.756;2023-02-12T09:28:55;94286.41;;;3.80;75.26
15195;BME280;7698;42.478;23.756;2023-02-12T09:31:24;94299.31;;;3.97;74.30
15195;BME280;7698;42.478;23.756;2023-02-12T09:33:52;94294.03;;;4.20;73.92
15195;BME280;7698;42.478;23.756;2023-02-12T09:36:20;94278.16;;;4.43;72.39
15195;BME280;7698;42.478;23.756;2023-02-12T09:38:47;94287.56;;;4.83;72.83
15195;BME280;7698;42.478;23.756;2023-02-12T09:41:45;94293.22;;;5.54;71.75
15195;BME280;7698;42.478;23.756;2023-02-12T09:44:18;94293.47;;;6.24;68.48
15195;BME280;7698;42.478;23.756;2023-02-12T09:46:49;94300.00;;;6.71;65.17
15195;BME280;7698;42.478;23.756;2023-02-12T09:49:25;94299.00;;;7.00;62.76
15195;BME280;7698;42.478;23.756;2023-02-12T09:51:59;94296.91;;;7.23;60.51
15195;BME280;7698;42.478;23.756;2023-02-12T09:54:34;94286.56;;;7.35;59.09
15195;BME280;7698;42.478;23.756;2023-02-12T09:57:10;94287.94;;;7.59;57.52
15195;BME280;7698;42.478;23.756;2023-02-12T09:59:42;94285.88;;;8.08;56.96
15195;BME280;7698;42.478;23.756;2023-02-12T10:02:12;94273.50;;;8.81;57.15
15195;BME280;7698;42.478;23.756;2023-02-12T10:04:40;94275.50;;;9.39;54.41
15195;BME280;7698;42.478;23.756;2023-02-12T10:07:17;94278.72;;;9.61;52.16
15195;BME280;7698;42.478;23.756;2023-02-12T10:10:01;94271.22;;;9.96;52.06
15195;BME280;7698;42.478;23.756;2023-02-12T10:12:34;94276.16;;;9.99;49.28
15195;BME280;7698;42.478;23.756;2023-02-12T10:15:26;94272.75;;;9.78;48.74
15195;BME280;7698;42.478;23.756;2023-02-12T10:18:05;94275.91;;;9.49;48.90
15195;BME280;7698;42.478;23.756;2023-02-12T10:20:47;94274.81;;;9.76;50.30
15195;BME280;7698;42.478;23.756;2023-02-12T10:26:22;94277.03;;;9.79;48.04
15195;BME280;7698;42.478;23.756;2023-02-12T10:28:53;94278.78;;;10.05;48.91
15195;BME280;7698;42.478;23.756;2023-02-12T10:31:28;94284.91;;;10.57;48.56
15195;BME280;7698;42.478;23.756;2023-02-12T10:33:56;94289.69;;;11.05;47.32
15195;BME280;7698;42.478;23.756;2023-02-12T10:36:31;94278.44;;;10.96;46.38
15195;BME280;7698;42.478;23.756;2023-02-12T10:39:05;94280.03;;;10.47;45.38
15195;BME280;7698;42.478;23.756;2023-02-12T10:41:43;94288.56;;;9.73;45.52
15195;BME280;7698;42.478;23.756;2023-02-12T10:44:13;94296.66;;;9.21;47.28
15195;BME280;7698;42.478;23.756;2023-02-12T10:46:40;94300.75;;;8.57;47.34
15195;BME280;7698;42.478;23.756;2023-02-12T10:49:10;94302.38;;;7.97;49.22
15195;BME280;7698;42.478;23.756;2023-02-12T10:51:52;94307.78;;;7.69;50.83
15195;BME280;7698;42.478;23.756;2023-02-12T10:54:40;94311.59;;;7.54;51.50
15195;BME280;7698;42.478;23.756;2023-02-12T10:57:18;94319.28;;;7.42;52.54
15195;BME280;7698;42.478;23.756;2023-02-12T10:59:49;94319.84;;;7.31;52.60
15195;BME280;7698;42.478;23.756;2023-02-12T11:02:22;94327.69;;;7.11;52.75
15195;BME280;7698;42.478;23.756;2023-02-12T11:04:51;94318.44;;;6.79;54.36
15195;BME280;7698;42.478;23.756;2023-02-12T11:07:19;94314.41;;;6.62;54.36
15195;BME280;7698;42.478;23.756;2023-02-12T11:09:48;94318.66;;;6.56;55.43
15195;BME280;7698;42.478;23.756;2023-02-12T11:12:27;94329.22;;;6.50;55.60
15195;BME280;7698;42.478;23.756;2023-02-12T11:14:59;94325.50;;;6.29;56.16
15195;BME280;7698;42.478;23.756;2023-02-12T11:17:31;94331.13;;;5.98;55.85
15195;BME280;7698;42.478;23.756;2023-02-12T11:20:21;94328.56;;;5.61;56.58
15195;BME280;7698;42.478;23.756;2023-02-12T11:22:55;94327.28;;;5.27;57.50
15195;BME280;7698;42.478;23.756;2023-02-12T11:25:24;94333.66;;;5.03;59.25
15195;BME280;7698;42.478;23.756;2023-02-12T11:28:04;94327.31;;;4.75;60.14
15195;BME280;7698;42.478;23.756;2023-02-12T11:30:33;94329.09;;;4.60;60.84
15195;BME280;7698;42.478;23.756;2023-02-12T11:33:14;94339.16;;;4.41;62.16
15195;BME280;7698;42.478;23.756;2023-02-12T11:35:52;94335.00;;;4.24;63.86
15195;BME280;7698;42.478;23.756;2023-02-12T11:38:24;94332.09;;;4.11;64.85
15195;BME280;7698;42.478;23.756;2023-02-12T11:40:55;94325.41;;;4.00;66.23
15195;BME280;7698;42.478;23.756;2023-02-12T11:43:23;94320.97;;;3.93;67.61
15195;BME280;7698;42.478;23.756;2023-02-12T11:45:53;94325.31;;;3.86;68.07
15195;BME280;7698;42.478;23.756;2023-02-12T11:48:23;94324.47;;;3.85;70.26
15195;BME280;7698;42.478;23.756;2023-02-12T11:50:53;94327.28;;;3.84;70.52
15195;BME280;7698;42.478;23.756;2023-02-12T11:53:22;94330.31;;;3.81;71.09
15195;BME280;7698;42.478;23.756;2023-02-12T11:55:55;94326.03;;;3.80;71.67
15195;BME280;7698;42.478;23.756;2023-02-12T11:58:24;94326.38;;;3.77;71.47
15195;BME280;7698;42.478;23.756;2023-02-12T12:01:01;94324.19;;;3.80;73.01
15195;BME280;7698;42.478;23.756;2023-02-12T12:03:35;94322.38;;;3.81;72.53
15195;BME280;7698;42.478;23.756;2023-02-12T12:06:07;94312.91;;;3.86;72.32
15195;BME280;7698;42.478;23.756;2023-02-12T12:08:41;94317.50;;;3.92;71.81
15195;BME280;7698;42.478;23.756;2023-02-12T12:11:13;94316.81;;;3.98;72.00
15195;BME280;7698;42.478;23.756;2023-02-12T12:13:47;94313.97;;;4.08;72.68
15195;BME280;7698;42.478;23.756;2023-02-12T12:16:19;94317.19;;;4.18;73.20
15195;BME280;7698;42.478;23.756;2023-02-12T12:19:10;94317.72;;;4.36;73.33
15195;BME280;7698;42.478;23.756;2023-02-12T12:21:59;94318.41;;;4.53;71.55
15195;BME280;7698;42.478;23.756;2023-02-12T12:24:38;94317.19;;;4.64;71.33
15195;BME280;7698;42.478;23.756;2023-02-12T12:27:14;94319.56;;;4.73;69.74
15195;BME280;7698;42.478;23.756;2023-02-12T12:30:16;94329.66;;;4.70;68.37
15195;BME280;7698;42.478;23.756;2023-02-12T12:32:48;94335.44;;;4.73;67.80
15195;BME280;7698;42.478;23.756;2023-02-12T12:35:22;94339.78;;;4.89;68.70
15195;BME280;7698;42.478;23.756;2023-02-12T12:37:54;94332.13;;;5.09;67.98
15195;BME280;7698;42.478;23.756;2023-02-12T12:40:37;94337.88;;;5.27;67.28
15195;BME280;7698;42.478;23.756;2023-02-12T12:43:17;94329.59;;;5.45;66.88
15195;BME280;7698;42.478;23.756;2023-02-12T12:46:20;94342.72;;;5.53;65.30
15195;BME280;7698;42.478;23.756;2023-02-12T12:49:13;94344.66;;;5.59;64.88
15195;BME280;7698;42.478;23.756;2023-02-12T12:52:00;94339.22;;;5.82;65.18
15195;BME280;7698;42.478;23.756;2023-02-12T12:54:40;94338.13;;;6.06;64.80
15195;BME280;7698;42.478;23.756;2023-02-12T12:57:18;94340.09;;;6.19;62.83
15195;BME280;7698;42.478;23.756;2023-02-12T13:00:07;94345.97;;;6.35;61.46
15195;BME280;7698;42.478;23.756;2023-02-12T13:06:15;94350.88;;;6.53;60.45
15195;BME280;7698;42.478;23.756;2023-02-12T13:09:00;94352.72;;;6.53;59.28
15195;BME280;7698;42.478;23.756;2023-02-12T13:11:34;94355.00;;;6.56;59.25
15195;BME280;7698;42.478;23.756;2023-02-12T13:14:16;94360.03;;;6.72;59.28
15195;BME280;7698;42.478;23.756;2023-02-12T13:16:54;94372.66;;;6.91;58.76
15195;BME280;7698;42.478;23.756;2023-02-12T13:19:34;94373.53;;;6.98;57.99
15195;BME280;7698;42.478;23.756;2023-02-12T13:22:10;94376.88;;;6.86;57.12
15195;BME280;7698;42.478;23.756;2023-02-12T13:24:45;94385.59;;;6.58;56.46
15195;BME280;7698;42.478;23.756;2023-02-12T13:27:15;94392.84;;;6.28;55.98
15195;BME280;7698;42.478;23.756;2023-02-12T13:29:47;94382.53;;;6.04;57.60
15195;BME280;7698;42.478;23.756;2023-02-12T13:32:22;94388.34;;;5.93;58.33
15195;BME280;7698;42.478;23.756;2023-02-12T13:34:52;94383.81;;;5.78;59.01
15195;BME280;7698;42.478;23.756;2023-02-12T13:37:27;94379.19;;;5.66;59.71